sensor_id;sensor_type;location;lat;lon;timestamp;P1;durP1;ratioP1;P2;durP2;ratioP2
3267;SDS011;1646;52.450;13.326;2023-04-24T00:00:05;6.23;;;5.17;;
3267;SDS011;1646;52.450;13.326;2023-04-24T00:05:05;6.30;;;5.13;;
3267;SDS011;1646;52.450;13.326;2023-04-24T00:10:05;5.70;;;4.50;;
3267;SDS011;1646;52.450;13.326;2023-04-24T00:15:07;8.17;;;5.60;;
3267;SDS011;1646;52.450;13.326;2023-04-24T00:20:06;5.90;;;5.13;;
3267;SDS011;1646;52.450;13.326;2023-04-24T00:25:07;6.80;;;4.83;;
3267;SDS011;1646;52.450;13.326;2023-04-24T00:30:07;6.10;;;5.27;;
3267;SDS011;1646;52.450;13.326;2023-04-24T00:35:06;7.43;;;5.00;;
3267;SDS011;1646;52.450;13.326;2023-04-24T00:40:05;8.70;;;6.60;;
3267;SDS011;1646;52.450;13.326;2023-04-24T00:45:05;6.40;;;5.37;;
3267;SDS011;1646;52.450;13.326;2023-04-24T00:50:05;9.10;;;6.00;;
3267;SDS011;1646;52.450;13.326;2023-04-24T00:55:05;5.60;;;5.00;;
3267;SDS011;1646;52.450;13.326;2023-04-24T01:00:05;6.83;;;5.83;;
3267;SDS011;1646;52.450;13.326;2023-04-24T01:05:08;6.20;;;4.93;;
3267;SDS011;1646;52.450;13.326;2023-04-24T01:10:08;7.20;;;5.67;;
3267;SDS011;1646;52.450;13.326;2023-04-24T01:15:09;6.70;;;6.00;;
3267;SDS011;1646;52.450;13.326;2023-04-24T01:20:08;7.40;;;6.07;;
3267;SDS011;1646;52.450;13.326;2023-04-24T01:25:11;7.27;;;6.00;;
3267;SDS011;1646;52.450;13.326;2023-04-24T01:30:10;7.80;;;6.00;;
3267;SDS011;1646;52.450;13.326;2023-04-24T01:35:09;7.50;;;6.37;;
3267;SDS011;1646;52.450;13.326;2023-04-24T01:40:08;6.67;;;5.80;;
3267;SDS011;1646;52.450;13.326;2023-04-24T01:45:10;7.63;;;6.30;;
3267;SDS011;1646;52.450;13.326;2023-04-24T01:50:09;5.87;;;5.27;;
3267;SDS011;1646;52.450;13.326;2023-04-24T01:55:08;8.47;;;5.80;;
3267;SDS011;1646;52.450;13.326;2023-04-24T02:00:09;6.60;;;5.70;;
3267;SDS011;1646;52.450;13.326;2023-04-24T02:05:09;7.77;;;6.47;;
3267;SDS011;1646;52.450;13.326;2023-04-24T02:10:07;8.73;;;6.57;;
3267;SDS011;1646;52.450;13.326;2023-04-24T02:15:12;5.97;;;5.30;;
3267;SDS011;1646;52.450;13.326;2023-04-24T02:20:11;7.03;;;6.00;;
3267;SDS011;1646;52.450;13.326;2023-04-24T02:25:09;7.53;;;6.57;;
3267;SDS011;1646;52.450;13.326;2023-04-24T02:30:08;6.77;;;6.07;;
3267;SDS011;1646;52.450;13.326;2023-04-24T02:35:08;8.40;;;5.90;;
3267;SDS011;1646;52.450;13.326;2023-04-24T02:40:07;7.53;;;6.23;;
3267;SDS011;1646;52.450;13.326;2023-04-24T02:45:07;6.17;;;5.50;;
3267;SDS011;1646;52.450;13.326;2023-04-24T02:50:06;9.10;;;6.37;;
3267;SDS011;1646;52.450;13.326;2023-04-24T02:55:07;6.73;;;5.93;;
3267;SDS011;1646;52.450;13.326;2023-04-24T03:00:06;8.30;;;6.90;;
3267;SDS011;1646;52.450;13.326;2023-04-24T03:05:05;8.77;;;6.80;;
3267;SDS011;1646;52.450;13.326;2023-04-24T03:10:07;8.20;;;6.90;;
3267;SDS011;1646;52.450;13.326;2023-04-24T03:15:06;8.53;;;5.83;;
3267;SDS011;1646;52.450;13.326;2023-04-24T03:20:06;10.20;;;6.87;;
3267;SDS011;1646;52.450;13.326;2023-04-24T03:25:08;8.17;;;7.37;;
3267;SDS011;1646;52.450;13.326;2023-04-24T03:30:07;8.60;;;6.50;;
3267;SDS011;1646;52.450;13.326;2023-04-24T03:35:21;7.47;;;6.40;;
3267;SDS011;1646;52.450;13.326;2023-04-24T03:40:22;7.97;;;6.53;;
3267;SDS011;1646;52.450;13.326;2023-04-24T03:45:21;6.03;;;5.43;;
3267;SDS011;1646;52.450;13.326;2023-04-24T03:50:21;9.70;;;6.67;;
3267;SDS011;1646;52.450;13.326;2023-04-24T03:55:19;9.50;;;5.77;;
3267;SDS011;1646;52.450;13.326;2023-04-24T04:00:19;9.77;;;6.90;;
3267;SDS011;1646;52.450;13.326;2023-04-24T04:05:27;7.40;;;6.70;;
3267;SDS011;1646;52.450;13.326;2023-04-24T04:10:26;7.90;;;6.20;;
3267;SDS011;1646;52.450;13.326;2023-04-24T04:15:25;7.90;;;6.10;;
3267;SDS011;1646;52.450;13.326;2023-04-24T04:20:24;6.97;;;5.70;;
3267;SDS011;1646;52.450;13.326;2023-04-24T04:25:23;7.43;;;6.63;;
3267;SDS011;1646;52.450;13.326;2023-04-24T04:30:21;11.40;;;7.07;;
3267;SDS011;1646;52.450;13.326;2023-04-24T04:35:27;12.73;;;6.47;;
3267;SDS011;1646;52.450;13.326;2023-04-24T04:40:26;6.83;;;6.00;;
3267;SDS011;1646;52.450;13.326;2023-04-24T04:45:30;7.73;;;4.83;;
3267;SDS011;1646;52.450;13.326;2023-04-24T04:50:49;6.87;;;4.97;;
3267;SDS011;1646;52.450;13.326;2023-04-24T04:55:50;6.73;;;4.90;;
3267;SDS011;1646;52.450;13.326;2023-04-24T05:00:53;4.13;;;3.77;;
3267;SDS011;1646;52.450;13.326;2023-04-24T05:05:58;4.23;;;3.57;;
3267;SDS011;1646;52.450;13.326;2023-04-24T05:10:58;5.70;;;3.50;;
3267;SDS011;1646;52.450;13.326;2023-04-24T05:15:59;4.80;;;3.17;;
3267;SDS011;1646;52.450;13.326;2023-04-24T05:21:00;3.53;;;3.17;;
3267;SDS011;1646;52.450;13.326;2023-04-24T05:25:59;2.63;;;2.43;;
3267;SDS011;1646;52.450;13.326;2023-04-24T05:30:59;4.80;;;2.90;;
3267;SDS011;1646;52.450;13.326;2023-04-24T05:35:58;5.30;;;2.90;;
3267;SDS011;1646;52.450;13.326;2023-04-24T05:40:58;2.87;;;2.67;;
3267;SDS011;1646;52.450;13.326;2023-04-24T05:45:56;2.60;;;2.40;;
3267;SDS011;1646;52.450;13.326;2023-04-24T05:50:55;2.67;;;2.47;;
3267;SDS011;1646;52.450;13.326;2023-04-24T05:55:54;2.27;;;2.03;;
3267;SDS011;1646;52.450;13.326;2023-04-24T06:00:53;4.17;;;2.50;;
3267;SDS011;1646;52.450;13.326;2023-04-24T06:05:52;2.53;;;2.33;;
3267;SDS011;1646;52.450;13.326;2023-04-24T06:10:52;3.20;;;2.07;;
3267;SDS011;1646;52.450;13.326;2023-04-24T06:15:52;3.13;;;2.07;;
3267;SDS011;1646;52.450;13.326;2023-04-24T06:21:00;2.60;;;2.00;;
3267;SDS011;1646;52.450;13.326;2023-04-24T06:25:59;1.67;;;1.57;;
3267;SDS011;1646;52.450;13.326;2023-04-24T06:30:58;2.10;;;1.60;;
3267;SDS011;1646;52.450;13.326;2023-04-24T06:35:57;1.83;;;1.40;;
3267;SDS011;1646;52.450;13.326;2023-04-24T06:40:55;2.53;;;1.20;;
3267;SDS011;1646;52.450;13.326;2023-04-24T06:45:53;3.20;;;1.00;;
3267;SDS011;1646;52.450;13.326;2023-04-24T06:50:53;3.40;;;1.47;;
3267;SDS011;1646;52.450;13.326;2023-04-24T06:55:52;1.90;;;1.70;;
3267;SDS011;1646;52.450;13.326;2023-04-24T07:00:50;1.53;;;1.20;;
3267;SDS011;1646;52.450;13.326;2023-04-24T07:05:48;2.53;;;1.20;;
3267;SDS011;1646;52.450;13.326;2023-04-24T07:10:49;2.33;;;1.40;;
3267;SDS011;1646;52.450;13.326;2023-04-24T07:15:48;1.70;;;1.03;;
3267;SDS011;1646;52.450;13.326;2023-04-24T07:20:47;1.10;;;0.90;;
3267;SDS011;1646;52.450;13.326;2023-04-24T07:25:46;2.97;;;0.90;;
3267;SDS011;1646;52.450;13.326;2023-04-24T07:30:46;1.00;;;0.90;;
3267;SDS011;1646;52.450;13.326;2023-04-24T07:35:44;0.93;;;0.83;;
3267;SDS011;1646;52.450;13.326;2023-04-24T07:40:42;1.23;;;0.90;;
3267;SDS011;1646;52.450;13.326;2023-04-24T07:45:45;1.00;;;0.90;;
3267;SDS011;1646;52.450;13.326;2023-04-24T07:50:43;1.07;;;0.97;;
3267;SDS011;1646;52.450;13.326;2023-04-24T07:55:42;2.00;;;1.10;;
3267;SDS011;1646;52.450;13.326;2023-04-24T08:00:40;1.63;;;0.97;;
3267;SDS011;1646;52.450;13.326;2023-04-24T08:05:39;2.23;;;1.10;;
3267;SDS011;1646;52.450;13.326;2023-04-24T08:10:39;6.30;;;0.83;;
3267;SDS011;1646;52.450;13.326;2023-04-24T08:15:37;1.30;;;0.90;;
3267;SDS011;1646;52.450;13.326;2023-04-24T08:20:36;2.77;;;0.87;;
3267;SDS011;1646;52.450;13.326;2023-04-24T08:25:35;2.30;;;0.93;;
3267;SDS011;1646;52.450;13.326;2023-04-24T08:30:34;2.00;;;0.77;;
3267;SDS011;1646;52.450;13.326;2023-04-24T08:35:32;1.00;;;0.77;;
3267;SDS011;1646;52.450;13.326;2023-04-24T08:40:30;0.70;;;0.70;;
3267;SDS011;1646;52.450;13.326;2023-04-24T08:45:33;1.07;;;0.87;;
3267;SDS011;1646;52.450;13.326;2023-04-24T08:50:32;0.97;;;0.80;;
3267;SDS011;1646;52.450;13.326;2023-04-24T08:55:31;1.70;;;0.90;;
3267;SDS011;1646;52.450;13.326;2023-04-24T09:00:30;1.30;;;1.00;;
3267;SDS011;1646;52.450;13.326;2023-04-24T09:05:31;1.20;;;1.10;;
3267;SDS011;1646;52.450;13.326;2023-04-24T09:10:30;2.60;;;0.90;;
3267;SDS011;1646;52.450;13.326;2023-04-24T09:15:29;1.40;;;1.10;;
3267;SDS011;1646;52.450;13.326;2023-04-24T09:20:27;6.40;;;1.27;;
3267;SDS011;1646;52.450;13.326;2023-04-24T09:25:31;3.43;;;0.90;;
3267;SDS011;1646;52.450;13.326;2023-04-24T09:30:32;1.77;;;1.03;;
3267;SDS011;1646;52.450;13.326;2023-04-24T09:35:30;2.90;;;1.00;;
3267;SDS011;1646;52.450;13.326;2023-04-24T09:40:31;0.97;;;0.87;;
3267;SDS011;1646;52.450;13.326;2023-04-24T09:45:36;1.07;;;0.80;;
3267;SDS011;1646;52.450;13.326;2023-04-24T09:50:35;2.30;;;0.80;;
3267;SDS011;1646;52.450;13.326;2023-04-24T09:55:38;2.30;;;0.80;;
3267;SDS011;1646;52.450;13.326;2023-04-24T10:00:37;1.77;;;0.80;;
3267;SDS011;1646;52.450;13.326;2023-04-24T10:05:36;1.77;;;0.83;;
3267;SDS011;1646;52.450;13.326;2023-04-24T10:10:38;2.60;;;0.70;;
3267;SDS011;1646;52.450;13.326;2023-04-24T10:15:40;2.30;;;0.80;;
3267;SDS011;1646;52.450;13.326;2023-04-24T10:20:39;0.80;;;0.80;;
3267;SDS011;1646;52.450;13.326;2023-04-24T10:25:38;1.33;;;0.80;;
3267;SDS011;1646;52.450;13.326;2023-04-24T10:30:38;1.33;;;1.00;;
3267;SDS011;1646;52.450;13.326;2023-04-24T10:35:41;0.90;;;0.70;;
3267;SDS011;1646;52.450;13.326;2023-04-24T10:40:42;3.23;;;0.80;;
3267;SDS011;1646;52.450;13.326;2023-04-24T10:45:42;1.70;;;0.80;;
3267;SDS011;1646;52.450;13.326;2023-04-24T10:50:58;1.97;;;0.90;;
3267;SDS011;1646;52.450;13.326;2023-04-24T10:55:57;0.80;;;0.80;;
3267;SDS011;1646;52.450;13.326;2023-04-24T11:00:58;3.03;;;1.00;;
3267;SDS011;1646;52.450;13.326;2023-04-24T11:05:58;1.23;;;0.80;;
3267;SDS011;1646;52.450;13.326;2023-04-24T11:11:02;1.27;;;0.83;;
3267;SDS011;1646;52.450;13.326;2023-04-24T11:16:16;0.77;;;0.77;;
3267;SDS011;1646;52.450;13.326;2023-04-24T11:21:18;4.53;;;1.10;;
3267;SDS011;1646;52.450;13.326;2023-04-24T11:26:18;2.97;;;1.20;;
3267;SDS011;1646;52.450;13.326;2023-04-24T11:31:38;2.40;;;1.00;;
3267;SDS011;1646;52.450;13.326;2023-04-24T11:36:38;1.23;;;1.13;;
3267;SDS011;1646;52.450;13.326;2023-04-24T11:41:37;1.77;;;1.00;;
3267;SDS011;1646;52.450;13.326;2023-04-24T11:46:37;1.50;;;0.90;;
3267;SDS011;1646;52.450;13.326;2023-04-24T11:51:37;2.80;;;1.00;;
3267;SDS011;1646;52.450;13.326;2023-04-24T11:56:49;1.13;;;0.90;;
3267;SDS011;1646;52.450;13.326;2023-04-24T12:01:49;2.23;;;1.10;;
3267;SDS011;1646;52.450;13.326;2023-04-24T12:07:00;1.40;;;0.90;;
3267;SDS011;1646;52.450;13.326;2023-04-24T12:11:59;1.80;;;0.80;;
3267;SDS011;1646;52.450;13.326;2023-04-24T12:16:58;2.50;;;1.10;;
3267;SDS011;1646;52.450;13.326;2023-04-24T12:22:00;1.43;;;0.80;;
3267;SDS011;1646;52.450;13.326;2023-04-24T12:26:59;2.03;;;0.87;;
3267;SDS011;1646;52.450;13.326;2023-04-24T12:31:59;1.90;;;0.70;;
3267;SDS011;1646;52.450;13.326;2023-04-24T12:37:08;1.70;;;0.90;;
3267;SDS011;1646;52.450;13.326;2023-04-24T12:42:07;1.33;;;0.70;;
3267;SDS011;1646;52.450;13.326;2023-04-24T12:47:07;1.47;;;0.80;;
3267;SDS011;1646;52.450;13.326;2023-04-24T12:52:06;1.97;;;0.90;;
3267;SDS011;1646;52.450;13.326;2023-04-24T12:57:05;1.33;;;0.90;;
3267;SDS011;1646;52.450;13.326;2023-04-24T13:02:03;1.27;;;0.80;;
3267;SDS011;1646;52.450;13.326;2023-04-24T13:07:03;2.30;;;0.80;;
3267;SDS011;1646;52.450;13.326;2023-04-24T13:12:02;3.43;;;0.70;;
3267;SDS011;1646;52.450;13.326;2023-04-24T13:17:02;8.03;;;1.00;;
3267;SDS011;1646;52.450;13.326;2023-04-24T13:22:00;0.73;;;0.73;;
3267;SDS011;1646;52.450;13.326;2023-04-24T13:26:59;0.90;;;0.80;;
3267;SDS011;1646;52.450;13.326;2023-04-24T13:31:58;1.53;;;1.00;;
3267;SDS011;1646;52.450;13.326;2023-04-24T13:36:57;0.80;;;0.80;;
3267;SDS011;1646;52.450;13.326;2023-04-24T13:41:56;1.93;;;0.80;;
3267;SDS011;1646;52.450;13.326;2023-04-24T13:46:57;1.20;;;0.70;;
3267;SDS011;1646;52.450;13.326;2023-04-24T13:51:55;1.57;;;0.80;;
3267;SDS011;1646;52.450;13.326;2023-04-24T13:56:55;0.87;;;0.80;;
3267;SDS011;1646;52.450;13.326;2023-04-24T14:01:56;1.27;;;0.70;;
3267;SDS011;1646;52.450;13.326;2023-04-24T14:06:54;2.30;;;0.70;;
3267;SDS011;1646;52.450;13.326;2023-04-24T14:11:53;1.10;;;0.77;;
3267;SDS011;1646;52.450;13.326;2023-04-24T14:16:51;2.10;;;1.00;;
3267;SDS011;1646;52.450;13.326;2023-04-24T14:21:50;1.00;;;0.90;;
3267;SDS011;1646;52.450;13.326;2023-04-24T14:26:48;1.57;;;0.80;;
3267;SDS011;1646;52.450;13.326;2023-04-24T14:31:47;1.17;;;0.80;;
3267;SDS011;1646;52.450;13.326;2023-04-24T14:36:45;3.53;;;1.00;;
3267;SDS011;1646;52.450;13.326;2023-04-24T14:41:45;0.80;;;0.77;;
3267;SDS011;1646;52.450;13.326;2023-04-24T14:46:43;1.47;;;0.80;;
3267;SDS011;1646;52.450;13.326;2023-04-24T14:51:41;1.93;;;0.87;;
3267;SDS011;1646;52.450;13.326;2023-04-24T14:56:40;1.33;;;0.70;;
3267;SDS011;1646;52.450;13.326;2023-04-24T15:01:41;1.37;;;1.00;;
3267;SDS011;1646;52.450;13.326;2023-04-24T15:06:39;2.07;;;0.83;;
3267;SDS011;1646;52.450;13.326;2023-04-24T15:11:38;2.03;;;1.33;;
3267;SDS011;1646;52.450;13.326;2023-04-24T15:16:37;1.57;;;1.30;;
3267;SDS011;1646;52.450;13.326;2023-04-24T15:21:37;1.33;;;1.10;;
3267;SDS011;1646;52.450;13.326;2023-04-24T15:26:36;2.30;;;1.23;;
3267;SDS011;1646;52.450;13.326;2023-04-24T15:31:35;1.20;;;1.10;;
3267;SDS011;1646;52.450;13.326;2023-04-24T15:36:37;4.60;;;1.37;;
3267;SDS011;1646;52.450;13.326;2023-04-24T15:41:35;2.20;;;0.97;;
3267;SDS011;1646;52.450;13.326;2023-04-24T15:46:34;2.30;;;0.87;;
3267;SDS011;1646;52.450;13.326;2023-04-24T15:51:32;2.10;;;1.00;;
3267;SDS011;1646;52.450;13.326;2023-04-24T15:56:32;1.20;;;1.10;;
3267;SDS011;1646;52.450;13.326;2023-04-24T16:01:32;3.03;;;1.33;;
3267;SDS011;1646;52.450;13.326;2023-04-24T16:06:30;1.40;;;0.97;;
3267;SDS011;1646;52.450;13.326;2023-04-24T16:11:29;1.33;;;1.10;;
3267;SDS011;1646;52.450;13.326;2023-04-24T16:16:29;5.47;;;1.00;;
3267;SDS011;1646;52.450;13.326;2023-04-24T16:21:27;2.20;;;1.43;;
3267;SDS011;1646;52.450;13.326;2023-04-24T16:26:27;2.23;;;0.70;;
3267;SDS011;1646;52.450;13.326;2023-04-24T16:31:25;2.33;;;1.33;;
3267;SDS011;1646;52.450;13.326;2023-04-24T16:36:25;1.20;;;0.87;;
3267;SDS011;1646;52.450;13.326;2023-04-24T16:41:24;1.63;;;1.10;;
3267;SDS011;1646;52.450;13.326;2023-04-24T16:46:22;1.30;;;1.20;;
3267;SDS011;1646;52.450;13.326;2023-04-24T16:51:20;1.00;;;0.90;;
3267;SDS011;1646;52.450;13.326;2023-04-24T16:56:20;1.30;;;1.20;;
3267;SDS011;1646;52.450;13.326;2023-04-24T17:01:18;1.73;;;0.90;;
3267;SDS011;1646;52.450;13.326;2023-04-24T17:06:17;1.23;;;1.10;;
3267;SDS011;1646;52.450;13.326;2023-04-24T17:11:15;1.53;;;1.13;;
3267;SDS011;1646;52.450;13.326;2023-04-24T17:16:14;2.90;;;1.20;;
3267;SDS011;1646;52.450;13.326;2023-04-24T17:21:13;4.33;;;1.17;;
3267;SDS011;1646;52.450;13.326;2023-04-24T17:26:13;1.27;;;1.00;;
3267;SDS011;1646;52.450;13.326;2023-04-24T17:31:11;1.80;;;1.27;;
3267;SDS011;1646;52.450;13.326;2023-04-24T17:36:11;1.53;;;1.23;;
3267;SDS011;1646;52.450;13.326;2023-04-24T17:41:09;2.07;;;1.87;;
3267;SDS011;1646;52.450;13.326;2023-04-24T17:46:07;2.43;;;1.77;;
3267;SDS011;1646;52.450;13.326;2023-04-24T17:51:05;2.93;;;1.40;;
3267;SDS011;1646;52.450;13.326;2023-04-24T17:56:05;2.50;;;1.70;;
3267;SDS011;1646;52.450;13.326;2023-04-24T18:01:04;2.23;;;1.87;;
3267;SDS011;1646;52.450;13.326;2023-04-24T18:06:02;1.30;;;1.20;;
3267;SDS011;1646;52.450;13.326;2023-04-24T18:11:01;1.53;;;1.43;;
3267;SDS011;1646;52.450;13.326;2023-04-24T18:16:01;1.50;;;1.40;;
3267;SDS011;1646;52.450;13.326;2023-04-24T18:20:59;3.27;;;1.57;;
3267;SDS011;1646;52.450;13.326;2023-04-24T18:25:58;0.87;;;0.83;;
3267;SDS011;1646;52.450;13.326;2023-04-24T18:30:56;1.17;;;0.90;;
3267;SDS011;1646;52.450;13.326;2023-04-24T18:35:56;0.90;;;0.90;;
3267;SDS011;1646;52.450;13.326;2023-04-24T18:40:54;0.80;;;0.80;;
3267;SDS011;1646;52.450;13.326;2023-04-24T18:45:52;2.23;;;0.80;;
3267;SDS011;1646;52.450;13.326;2023-04-24T18:50:50;1.00;;;0.90;;
3267;SDS011;1646;52.450;13.326;2023-04-24T18:55:50;3.10;;;0.80;;
3267;SDS011;1646;52.450;13.326;2023-04-24T19:00:48;5.17;;;0.90;;
3267;SDS011;1646;52.450;13.326;2023-04-24T19:05:47;0.73;;;0.70;;
3267;SDS011;1646;52.450;13.326;2023-04-24T19:10:45;0.90;;;0.70;;
3267;SDS011;1646;52.450;13.326;2023-04-24T19:15:45;1.37;;;0.90;;
3267;SDS011;1646;52.450;13.326;2023-04-24T19:20:43;1.20;;;0.73;;
3267;SDS011;1646;52.450;13.326;2023-04-24T19:25:42;1.00;;;0.77;;
3267;SDS011;1646;52.450;13.326;2023-04-24T19:30:40;1.83;;;1.07;;
3267;SDS011;1646;52.450;13.326;2023-04-24T19:35:39;2.60;;;1.10;;
3267;SDS011;1646;52.450;13.326;2023-04-24T19:40:37;4.30;;;1.90;;
3267;SDS011;1646;52.450;13.326;2023-04-24T19:45:36;2.10;;;1.30;;
3267;SDS011;1646;52.450;13.326;2023-04-24T19:50:34;5.33;;;1.50;;
3267;SDS011;1646;52.450;13.326;2023-04-24T19:55:35;2.63;;;2.00;;
3267;SDS011;1646;52.450;13.326;2023-04-24T20:00:33;1.77;;;1.50;;
3267;SDS011;1646;52.450;13.326;2023-04-24T20:05:31;1.53;;;1.33;;
3267;SDS011;1646;52.450;13.326;2023-04-24T20:10:30;4.93;;;2.37;;
3267;SDS011;1646;52.450;13.326;2023-04-24T20:15:29;4.20;;;1.60;;
3267;SDS011;1646;52.450;13.326;2023-04-24T20:20:28;3.30;;;2.50;;
3267;SDS011;1646;52.450;13.326;2023-04-24T20:25:26;1.90;;;1.80;;
3267;SDS011;1646;52.450;13.326;2023-04-24T20:30:24;2.03;;;1.83;;
3267;SDS011;1646;52.450;13.326;2023-04-24T20:35:24;2.30;;;2.10;;
3267;SDS011;1646;52.450;13.326;2023-04-24T20:40:22;4.97;;;1.90;;
3267;SDS011;1646;52.450;13.326;2023-04-24T20:45:21;6.37;;;2.67;;
3267;SDS011;1646;52.450;13.326;2023-04-24T20:50:20;3.67;;;1.93;;
3267;SDS011;1646;52.450;13.326;2023-04-24T20:55:22;2.77;;;2.00;;
3267;SDS011;1646;52.450;13.326;2023-04-24T21:00:20;4.60;;;2.33;;
3267;SDS011;1646;52.450;13.326;2023-04-24T21:05:22;6.07;;;2.50;;
3267;SDS011;1646;52.450;13.326;2023-04-24T21:10:22;5.30;;;2.30;;
3267;SDS011;1646;52.450;13.326;2023-04-24T21:15:21;5.20;;;3.20;;
3267;SDS011;1646;52.450;13.326;2023-04-24T21:20:19;5.20;;;2.70;;
3267;SDS011;1646;52.450;13.326;2023-04-24T21:25:18;4.47;;;3.33;;
3267;SDS011;1646;52.450;13.326;2023-04-24T21:30:17;10.23;;;2.90;;
3267;SDS011;1646;52.450;13.326;2023-04-24T21:35:17;4.97;;;3.60;;
3267;SDS011;1646;52.450;13.326;2023-04-24T21:40:15;7.77;;;3.57;;
3267;SDS011;1646;52.450;13.326;2023-04-24T21:45:14;4.87;;;3.40;;
3267;SDS011;1646;52.450;13.326;2023-04-24T21:50:13;5.03;;;3.00;;
3267;SDS011;1646;52.450;13.326;2023-04-24T21:55:11;6.10;;;4.20;;
3267;SDS011;1646;52.450;13.326;2023-04-24T22:00:10;5.40;;;4.10;;
3267;SDS011;1646;52.450;13.326;2023-04-24T22:05:09;8.47;;;3.93;;
3267;SDS011;1646;52.450;13.326;2023-04-24T22:10:13;6.10;;;3.53;;
3267;SDS011;1646;52.450;13.326;2023-04-24T22:15:12;6.20;;;3.57;;
3267;SDS011;1646;52.450;13.326;2023-04-24T22:20:11;4.27;;;3.37;;
3267;SDS011;1646;52.450;13.326;2023-04-24T22:25:09;4.20;;;3.30;;
3267;SDS011;1646;52.450;13.326;2023-04-24T22:30:09;5.17;;;3.80;;
3267;SDS011;1646;52.450;13.326;2023-04-24T22:35:08;10.03;;;4.00;;
3267;SDS011;1646;52.450;13.326;2023-04-24T22:40:06;5.77;;;3.50;;
3267;SDS011;1646;52.450;13.326;2023-04-24T22:45:06;7.77;;;4.07;;
3267;SDS011;1646;52.450;13.326;2023-04-24T22:50:08;6.40;;;3.83;;
3267;SDS011;1646;52.450;13.326;2023-04-24T22:55:07;3.90;;;3.40;;
3267;SDS011;1646;52.450;13.326;2023-04-24T23:00:06;3.93;;;2.97;;
3267;SDS011;1646;52.450;13.326;2023-04-24T23:05:07;3.17;;;2.50;;
3267;SDS011;1646;52.450;13.326;2023-04-24T23:10:07;7.90;;;3.40;;
3267;SDS011;1646;52.450;13.326;2023-04-24T23:15:06;3.50;;;3.20;;
3267;SDS011;1646;52.450;13.326;2023-04-24T23:20:06;8.07;;;3.03;;
3267;SDS011;1646;52.450;13.326;2023-04-24T23:25:08;5.33;;;2.90;;
3267;SDS011;1646;52.450;13.326;2023-04-24T23:30:07;4.00;;;3.47;;
3267;SDS011;1646;52.450;13.326;2023-04-24T23:35:06;4.43;;;2.60;;
3267;SDS011;1646;52.450;13.326;2023-04-24T23:40:07;4.93;;;2.17;;
3267;SDS011;1646;52.450;13.326;2023-04-24T23:45:06;4.03;;;2.57;;
3267;SDS011;1646;52.450;13.326;2023-04-24T23:50:07;3.93;;;2.30;;
3267;SDS011;1646;52.450;13.326;2023-04-24T23:55:08;3.27;;;2.20;;
